Time;durP1;ratioP1;P1;durP2;ratioP2;P2;SDS_P1;SDS_P2;PMS_P1;PMS_P2;Temp;Humidity;BMP_temperature;BMP_pressure;BME280_temperature;BME280_humidity;BME280_pressure;Samples;Min_cycle;Max_cycle;Signal;HPM_P1;HPM_P2
2022/11/08 00:03:57;;;;;;;6.55;2.80;;;17.00;99.90;;;;;;4994005;28;20053;-74
2022/11/08 00:14:38;;;;;;;6.50;2.17;;;16.90;99.90;;;;;;5017541;28;20100;-74
2022/11/08 00:17:06;;;;;;;4.82;2.30;;;16.90;99.90;;;;;;4997027;28;20129;-73
2022/11/08 00:19:32;;;;;;;7.28;1.90;;;17.00;99.90;;;;;;4999106;28;20057;-74
2022/11/08 00:21:58;;;;;;;6.53;2.38;;;16.90;99.90;;;;;;5027102;28;20393;-73
2022/11/08 00:24:24;;;;;;;5.43;2.75;;;17.00;99.90;;;;;;5001396;28;20431;-75
2022/11/08 00:26:50;;;;;;;8.25;2.13;;;17.00;99.90;;;;;;4997587;28;20117;-73
2022/11/08 00:29:15;;;;;;;7.13;2.67;;;17.00;99.90;;;;;;4998901;28;20759;-73
2022/11/08 00:31:43;;;;;;;5.28;1.85;;;17.00;99.90;;;;;;5002814;28;20061;-73
2022/11/08 00:34:09;;;;;;;9.38;2.40;;;17.00;99.90;;;;;;5020547;28;20112;-74
2022/11/08 00:36:35;;;;;;;5.80;1.83;;;16.90;99.90;;;;;;5016647;28;20065;-74
2022/11/08 00:39:01;;;;;;;4.70;2.03;;;17.00;99.90;;;;;;5018242;28;20124;-74
2022/11/08 00:41:27;;;;;;;6.68;1.95;;;17.00;99.90;;;;;;5003509;28;20034;-74
2022/11/08 00:43:52;;;;;;;7.93;2.60;;;16.90;99.90;;;;;;4999356;28;20500;-74
2022/11/08 00:46:18;;;;;;;6.47;2.40;;;16.90;99.90;;;;;;4999049;28;20042;-74
2022/11/08 00:48:44;;;;;;;5.50;2.17;;;16.90;99.90;;;;;;5000683;28;20045;-73
2022/11/08 00:51:11;;;;;;;5.88;2.75;;;16.90;99.90;;;;;;4986248;28;20405;-73
2022/11/08 00:53:38;;;;;;;;;;;16.80;99.90;;;;;;5005072;28;20144;-73
2022/11/08 00:56:06;;;;;;;6.18;2.67;;;16.80;99.90;;;;;;4998398;28;20304;-73
2022/11/08 00:58:33;;;;;;;8.05;2.22;;;16.90;99.90;;;;;;5002725;28;20038;-73
2022/11/08 01:00:59;;;;;;;5.28;2.00;;;16.90;99.90;;;;;;5001853;28;20184;-74
2022/11/08 01:03:25;;;;;;;5.63;2.10;;;16.90;99.90;;;;;;5003196;28;20034;-74
2022/11/08 01:05:54;;;;;;;5.15;2.22;;;16.80;99.90;;;;;;4999654;28;20499;-73
2022/11/08 01:08:23;;;;;;;4.97;1.88;;;16.80;99.90;;;;;;4998033;28;20070;-73
2022/11/08 01:10:52;;;;;;;5.35;2.20;;;16.70;99.90;;;;;;5004294;28;20507;-74
2022/11/08 01:13:18;;;;;;;6.72;2.20;;;16.70;99.90;;;;;;5009041;28;20081;-73
2022/11/08 01:15:46;;;;;;;7.65;1.88;;;16.70;99.90;;;;;;4995512;28;20069;-73
2022/11/08 01:18:13;;;;;;;6.63;1.70;;;16.70;99.90;;;;;;5002536;28;20034;-73
2022/11/08 01:20:45;;;;;;;6.45;1.85;;;16.70;99.90;;;;;;4998216;28;20430;-73
2022/11/08 01:23:12;;;;;;;5.47;1.77;;;16.70;99.90;;;;;;4995990;28;20054;-73
2022/11/08 01:25:41;;;;;;;5.22;1.80;;;16.70;99.90;;;;;;4997905;28;20077;-74
2022/11/08 01:28:07;;;;;;;5.70;1.80;;;16.70;99.90;;;;;;4985478;28;20034;-73
2022/11/08 01:30:38;;;;;;;6.57;1.75;;;16.80;99.90;;;;;;4990601;28;20073;-74
2022/11/08 01:33:05;;;;;;;7.15;2.13;;;16.70;99.90;;;;;;5005728;28;20120;-74
2022/11/08 01:35:31;;;;;;;;;;;16.70;99.90;;;;;;5017293;28;20070;-73
2022/11/08 01:37:58;;;;;;;5.47;1.83;;;16.70;99.90;;;;;;5000574;28;19925;-74
2022/11/08 01:40:24;;;;;;;;;;;16.70;99.90;;;;;;4999711;28;20554;-74
2022/11/08 01:42:50;;;;;;;6.20;2.72;;;16.60;99.90;;;;;;5002989;28;19976;-73
2022/11/08 01:45:54;;;;;;;6.28;1.55;;;16.60;99.90;;;;;;5024972;28;20141;-74
2022/11/08 01:48:22;;;;;;;4.15;1.77;;;16.60;99.90;;;;;;5012927;28;20033;-73
2022/11/08 01:50:49;;;;;;;7.07;2.00;;;16.60;99.90;;;;;;5041398;28;20048;-73
2022/11/08 01:53:15;;;;;;;6.15;2.00;;;16.60;99.90;;;;;;5007914;28;20117;-73
2022/11/08 01:55:42;;;;;;;5.22;1.95;;;16.60;99.90;;;;;;5008550;28;20133;-72
2022/11/08 01:58:22;;;;;;;6.65;2.40;;;16.60;99.90;;;;;;5016138;28;20504;-73
2022/11/08 02:00:48;;;;;;;6.22;2.10;;;16.50;99.90;;;;;;5018573;28;20056;-73
2022/11/08 02:03:17;;;;;;;7.90;2.45;;;16.50;99.90;;;;;;5017755;28;20041;-73
2022/11/08 02:05:44;;;;;;;5.47;2.50;;;16.60;99.90;;;;;;5014088;28;20401;-73
2022/11/08 02:08:35;;;;;;;6.85;2.10;;;16.50;99.90;;;;;;5023832;28;20084;-73
2022/11/08 02:11:03;;;;;;;5.68;2.03;;;16.50;99.90;;;;;;5025320;28;20038;-73
2022/11/08 02:13:31;;;;;;;6.30;2.05;;;16.60;99.90;;;;;;4986615;28;20042;-73
2022/11/08 02:15:57;;;;;;;7.90;2.33;;;16.50;99.90;;;;;;5001255;28;20038;-74
2022/11/08 02:18:27;;;;;;;7.78;2.10;;;16.60;99.90;;;;;;4996788;28;20121;-74
2022/11/08 02:21:10;;;;;;;7.28;2.33;;;16.60;99.90;;;;;;4999581;28;20034;-73
2022/11/08 02:23:46;;;;;;;7.38;2.20;;;16.60;99.90;;;;;;5014201;28;20053;-73
2022/11/08 02:26:13;;;;;;;4.22;2.15;;;16.60;99.90;;;;;;5016958;28;20067;-73
2022/11/08 02:28:44;;;;;;;5.05;2.15;;;16.60;99.90;;;;;;5017100;28;20095;-73
2022/11/08 02:31:11;;;;;;;6.40;2.45;;;16.50;99.90;;;;;;5021747;28;20036;-73
2022/11/08 02:33:38;;;;;;;8.43;2.47;;;16.50;99.90;;;;;;5014343;28;20041;-73
2022/11/08 02:36:05;;;;;;;8.55;2.70;;;16.60;99.90;;;;;;4998779;28;20528;-73
2022/11/08 02:38:34;;;;;;;6.28;2.10;;;16.50;99.90;;;;;;5021497;28;20040;-73
2022/11/08 02:41:00;;;;;;;6.80;1.80;;;16.50;99.90;;;;;;5013604;28;20041;-73
2022/11/08 02:43:26;;;;;;;8.32;2.40;;;16.50;99.90;;;;;;5024252;28;20059;-72
2022/11/08 02:45:53;;;;;;;8.65;2.55;;;16.50;99.90;;;;;;5023515;28;20036;-75
2022/11/08 02:48:20;;;;;;;5.82;2.35;;;16.50;99.90;;;;;;5016069;28;20060;-73
2022/11/08 02:50:46;;;;;;;;;;;16.40;99.90;;;;;;5015379;28;20161;-74
2022/11/08 02:53:12;;;;;;;5.50;1.73;;;16.40;99.90;;;;;;5014996;28;19929;-74
2022/11/08 02:55:39;;;;;;;7.55;2.00;;;16.40;99.90;;;;;;5013692;28;20065;-74
2022/11/08 02:58:06;;;;;;;4.57;1.70;;;16.50;99.90;;;;;;4997895;28;20128;-73
2022/11/08 03:00:32;;;;;;;7.28;2.28;;;16.50;99.90;;;;;;5007521;28;20117;-73
2022/11/08 03:02:59;;;;;;;7.32;2.00;;;16.50;99.90;;;;;;5045569;28;20095;-73
2022/11/08 03:05:27;;;;;;;5.47;2.22;;;16.50;99.90;;;;;;5020673;28;20107;-72
2022/11/08 03:07:54;;;;;;;8.20;2.55;;;16.50;99.90;;;;;;5045211;28;20073;-74
2022/11/08 03:10:21;;;;;;;;;;;16.50;99.90;;;;;;5018608;28;20484;-73
2022/11/08 03:12:55;;;;;;;8.18;1.70;;;16.40;99.90;;;;;;5017029;28;20057;-73
2022/11/08 03:15:21;;;;;;;6.28;1.95;;;16.50;99.90;;;;;;5029216;28;20052;-73
2022/11/08 03:17:47;;;;;;;5.50;1.70;;;16.50;99.90;;;;;;5012721;28;20030;-73
2022/11/08 03:20:13;;;;;;;6.30;2.60;;;16.50;99.90;;;;;;5005240;28;20042;-74
2022/11/08 03:22:39;;;;;;;6.30;2.17;;;16.50;99.90;;;;;;4993943;28;20033;-73
2022/11/08 03:25:05;;;;;;;5.43;2.08;;;16.50;99.90;;;;;;4999892;28;20810;-74
2022/11/08 03:27:32;;;;;;;6.07;1.75;;;16.50;99.90;;;;;;5005223;28;20121;-74
2022/11/08 03:29:58;;;;;;;5.20;2.65;;;16.50;99.90;;;;;;4987116;28;20449;-73
2022/11/08 03:32:25;;;;;;;6.00;1.67;;;16.50;99.90;;;;;;4996269;28;20037;-73
2022/11/08 03:34:51;;;;;;;8.45;2.00;;;16.50;99.90;;;;;;4999287;28;20076;-73
2022/11/08 03:37:17;;;;;;;6.55;2.90;;;16.50;99.90;;;;;;4997221;28;20093;-74
2022/11/08 03:39:43;;;;;;;6.35;3.13;;;16.50;99.90;;;;;;4992863;28;20385;-74
2022/11/08 03:42:09;;;;;;;14.70;3.80;;;16.50;99.90;;;;;;4993811;28;20065;-74
2022/11/08 03:44:36;;;;;;;7.15;2.25;;;16.50;99.90;;;;;;5022312;28;20156;-74
2022/11/08 03:47:02;;;;;;;8.68;3.28;;;16.50;99.90;;;;;;5021878;28;20049;-73
2022/11/08 03:49:28;;;;;;;6.10;2.25;;;16.50;99.90;;;;;;5011464;28;20527;-74
2022/11/08 03:51:55;;;;;;;4.93;2.25;;;16.40;99.90;;;;;;5014667;28;20139;-74
2022/11/08 03:54:20;;;;;;;5.60;2.50;;;16.40;99.90;;;;;;5010183;28;20030;-74
2022/11/08 03:56:46;;;;;;;5.75;2.25;;;16.40;99.90;;;;;;5016512;28;20035;-73
2022/11/08 03:59:12;;;;;;;5.43;2.90;;;16.40;99.90;;;;;;4977726;28;20153;-73
2022/11/08 04:01:40;;;;;;;10.88;3.60;;;16.30;99.90;;;;;;4993765;28;20048;-73
2022/11/08 04:04:06;;;;;;;7.95;2.78;;;16.30;99.90;;;;;;4993260;28;20121;-73
2022/11/08 04:06:32;;;;;;;6.38;2.35;;;16.30;99.90;;;;;;4992193;28;20049;-73
2022/11/08 04:08:58;;;;;;;6.25;2.30;;;16.20;99.90;;;;;;5000186;28;20550;-75
2022/11/08 04:16:55;;;;;;;7.78;3.50;;;16.20;99.90;;;;;;4992524;28;20409;-74
2022/11/08 04:22:07;;;;;;;6.60;2.80;;;16.30;99.90;;;;;;4995239;28;20041;-73
2022/11/08 04:24:34;;;;;;;4.82;2.17;;;16.30;99.90;;;;;;5028144;28;20026;-75
2022/11/08 04:27:01;;;;;;;8.82;2.63;;;16.40;99.90;;;;;;4997842;28;20482;-74
2022/11/08 04:29:28;;;;;;;9.05;2.65;;;16.40;99.90;;;;;;4989248;28;20035;-74
2022/11/08 04:31:53;;;;;;;7.30;2.42;;;16.50;99.90;;;;;;4992938;28;20035;-74
2022/11/08 04:34:19;;;;;;;6.63;2.35;;;16.60;99.90;;;;;;4995913;28;20034;-74
2022/11/08 04:36:45;;;;;;;5.93;2.20;;;16.70;99.90;;;;;;5025433;28;20038;-73
2022/11/08 04:39:11;;;;;;;6.38;2.30;;;16.70;99.90;;;;;;4998198;28;20499;-74
2022/11/08 04:41:39;;;;;;;7.95;3.03;;;16.60;99.90;;;;;;4992377;28;20038;-73
2022/11/08 04:44:05;;;;;;;4.55;2.17;;;16.70;99.90;;;;;;4990870;28;20049;-73
2022/11/08 04:46:31;;;;;;;;;;;16.60;99.90;;;;;;4992290;28;20042;-73
2022/11/08 04:48:58;;;;;;;4.75;1.92;;;16.70;99.90;;;;;;4979790;28;19910;-73
2022/11/08 04:51:30;;;;;;;5.30;2.00;;;16.80;99.90;;;;;;5001253;28;20603;-74
2022/11/08 04:53:57;;;;;;;7.40;2.10;;;16.80;99.90;;;;;;4996616;28;20046;-74
2022/11/08 04:56:26;;;;;;;5.43;2.00;;;16.80;99.90;;;;;;4994819;28;20725;-74
2022/11/08 04:58:56;;;;;;;5.68;2.33;;;16.80;99.90;;;;;;4998327;28;20046;-73
2022/11/08 05:01:25;;;;;;;8.02;2.60;;;16.80;99.90;;;;;;5005140;28;20046;-74
2022/11/08 05:03:52;;;;;;;5.13;2.13;;;16.70;99.90;;;;;;5005173;28;20064;-74
2022/11/08 05:06:24;;;;;;;5.88;2.25;;;16.70;99.90;;;;;;5021376;28;20057;-73
2022/11/08 05:08:50;;;;;;;8.95;3.40;;;16.70;99.90;;;;;;5047602;28;20072;-74
2022/11/08 05:11:19;;;;;;;7.65;3.58;;;16.70;99.90;;;;;;5017960;28;20506;-73
2022/11/08 05:13:46;;;;;;;5.00;2.38;;;16.70;99.90;;;;;;5014553;28;20121;-74
2022/11/08 05:16:16;;;;;;;;;;;16.80;99.90;;;;;;5048109;28;20034;-74
2022/11/08 05:18:43;;;;;;;7.07;2.42;;;16.80;99.90;;;;;;5018102;28;19932;-74
2022/11/08 05:23:57;;;;;;;6.97;2.80;;;16.80;99.90;;;;;;4998628;28;20587;-74
2022/11/08 05:26:23;;;;;;;;;;;16.90;99.90;;;;;;4980836;28;20034;-73
2022/11/08 05:28:49;;;;;;;6.15;2.35;;;16.90;99.90;;;;;;4977000;28;19922;-73
2022/11/08 05:31:15;;;;;;;7.78;2.45;;;16.90;99.90;;;;;;5004244;28;20962;-74
2022/11/08 05:33:41;;;;;;;6.93;2.30;;;16.90;99.90;;;;;;4995473;28;20042;-74
2022/11/08 05:36:10;;;;;;;8.65;2.60;;;16.90;99.90;;;;;;4999184;28;20072;-74
2022/11/08 05:38:36;;;;;;;8.55;2.92;;;16.80;99.90;;;;;;4997562;28;20080;-74
2022/11/08 05:41:17;;;;;;;7.40;2.92;;;16.80;99.90;;;;;;4981598;28;20053;-74
2022/11/08 05:43:45;;;;;;;7.80;3.28;;;16.70;99.90;;;;;;4996872;28;20038;-73
2022/11/08 05:46:11;;;;;;;8.07;3.00;;;16.70;99.90;;;;;;4997603;28;20093;-73
2022/11/08 05:48:37;;;;;;;7.63;3.10;;;16.80;99.90;;;;;;5003531;28;20126;-73
2022/11/08 05:51:03;;;;;;;7.25;3.08;;;16.70;99.90;;;;;;4998556;28;20042;-74
2022/11/08 05:53:29;;;;;;;6.68;2.38;;;16.70;99.90;;;;;;4995510;28;20046;-74
2022/11/08 05:56:01;;;;;;;6.32;2.85;;;16.70;99.90;;;;;;4997241;28;20042;-74
2022/11/08 05:58:27;;;;;;;9.07;2.67;;;16.60;99.90;;;;;;4993643;28;20515;-73
2022/11/08 06:01:20;;;;;;;8.20;3.05;;;16.80;99.90;;;;;;4995280;28;20041;-72
2022/11/08 06:03:48;;;;;;;7.45;3.00;;;16.80;99.90;;;;;;4995080;28;20436;-74
2022/11/08 06:06:18;;;;;;;7.70;3.60;;;16.80;99.90;;;;;;4997221;28;20069;-73
2022/11/08 06:08:44;;;;;;;7.10;2.70;;;16.80;99.90;;;;;;4990901;28;20072;-73
2022/11/08 06:11:13;;;;;;;6.90;2.67;;;16.80;99.90;;;;;;4984458;28;20034;-74
2022/11/08 06:13:39;;;;;;;6.55;2.72;;;16.80;99.90;;;;;;4999768;28;20112;-74
2022/11/08 06:16:07;;;;;;;6.55;3.05;;;16.80;99.90;;;;;;4996416;28;20117;-73
2022/11/08 06:18:34;;;;;;;5.97;2.58;;;16.80;99.90;;;;;;4999099;28;20034;-73
2022/11/08 06:21:02;;;;;;;7.15;2.67;;;16.80;99.90;;;;;;4998662;28;20053;-73
2022/11/08 06:23:28;;;;;;;6.80;3.30;;;16.80;99.90;;;;;;5024753;28;20049;-73
2022/11/08 06:25:54;;;;;;;9.02;3.55;;;16.80;99.90;;;;;;5016915;28;20037;-74
2022/11/08 06:28:22;;;;;;;7.70;2.80;;;16.70;99.90;;;;;;5013414;28;20042;-74
2022/11/08 06:30:48;;;;;;;9.40;2.90;;;16.70;99.90;;;;;;5017336;28;20075;-74
2022/11/08 06:33:14;;;;;;;7.65;3.17;;;16.80;99.90;;;;;;5017751;28;20076;-74
2022/11/08 06:35:41;;;;;;;7.43;3.22;;;16.80;99.90;;;;;;5014349;28;20161;-73
2022/11/08 06:38:07;;;;;;;11.52;3.28;;;16.70;99.90;;;;;;5015585;28;20048;-75
2022/11/08 06:40:35;;;;;;;7.95;3.25;;;16.70;99.90;;;;;;5016903;28;20124;-75
2022/11/08 06:43:01;;;;;;;9.52;4.07;;;16.70;99.90;;;;;;5013982;28;20045;-74
2022/11/08 06:45:27;;;;;;;11.32;4.78;;;16.70;99.90;;;;;;5015733;28;20124;-74
2022/11/08 06:48:02;;;;;;;9.60;3.72;;;16.70;99.90;;;;;;5013671;28;20113;-74
2022/11/08 06:50:30;;;;;;;8.30;3.70;;;16.70;99.90;;;;;;4996501;28;20086;-73
2022/11/08 06:52:58;;;;;;;9.95;3.90;;;16.70;99.90;;;;;;5024232;28;20048;-74
2022/11/08 06:55:24;;;;;;;7.20;3.30;;;16.70;99.90;;;;;;5019058;28;20044;-74
2022/11/08 06:57:51;;;;;;;9.02;3.75;;;16.70;99.90;;;;;;5014849;28;20493;-73
2022/11/08 07:00:18;;;;;;;8.68;4.65;;;16.70;99.90;;;;;;5017522;28;20440;-73
2022/11/08 07:02:44;;;;;;;7.95;3.58;;;16.70;99.90;;;;;;5017678;28;20056;-73
2022/11/08 07:05:11;;;;;;;8.63;3.50;;;16.80;99.90;;;;;;5011466;28;20033;-75
2022/11/08 07:07:37;;;;;;;10.05;3.58;;;16.90;99.90;;;;;;5023119;28;20068;-73
2022/11/08 07:10:04;;;;;;;9.45;3.88;;;16.90;99.90;;;;;;5019329;28;20088;-73
2022/11/08 07:12:30;;;;;;;9.48;3.90;;;17.00;99.90;;;;;;5011689;28;20030;-73
2022/11/08 07:14:56;;;;;;;6.50;3.33;;;17.10;99.90;;;;;;4997579;28;20120;-73
2022/11/08 07:17:22;;;;;;;8.50;3.42;;;17.20;99.90;;;;;;4999284;28;20514;-75
2022/11/08 07:19:48;;;;;;;8.02;3.38;;;17.30;99.90;;;;;;4998170;28;20038;-74
2022/11/08 07:22:13;;;;;;;7.80;3.28;;;17.30;99.90;;;;;;4989854;28;20109;-74
2022/11/08 07:24:40;;;;;;;8.07;3.33;;;17.40;99.90;;;;;;4997528;28;20030;-73
2022/11/08 07:27:06;;;;;;;13.50;3.28;;;17.50;99.90;;;;;;5000632;28;20049;-74
2022/11/08 07:29:32;;;;;;;6.75;2.90;;;17.60;99.90;;;;;;4995156;28;20031;-73
2022/11/08 07:31:58;;;;;;;7.57;2.92;;;17.60;99.90;;;;;;4984100;28;20038;-73
2022/11/08 07:34:24;;;;;;;7.95;3.20;;;17.70;99.90;;;;;;4995462;28;20034;-73
2022/11/08 07:36:50;;;;;;;6.20;2.60;;;17.70;99.90;;;;;;4988305;28;20068;-74
2022/11/08 07:39:16;;;;;;;12.43;3.17;;;17.70;99.90;;;;;;4995428;28;20035;-74
2022/11/08 07:41:41;;;;;;;10.57;3.00;;;17.80;99.90;;;;;;4992878;28;20185;-74
2022/11/08 07:44:08;;;;;;;8.45;2.60;;;17.80;99.90;;;;;;4993496;28;20042;-73
2022/11/08 07:46:34;;;;;;;5.72;2.50;;;17.80;99.90;;;;;;4998704;28;20037;-73
2022/11/08 07:49:00;;;;;;;6.47;2.63;;;17.90;99.90;;;;;;4996731;28;20041;-74
2022/11/08 07:51:26;;;;;;;6.95;2.80;;;17.90;99.90;;;;;;4991316;28;20044;-74
2022/11/08 07:53:52;;;;;;;31.00;15.45;;;18.00;99.90;;;;;;4993229;28;20033;-73
2022/11/08 07:56:17;;;;;;;10.07;3.17;;;18.00;99.90;;;;;;4993444;28;20046;-74
2022/11/08 07:58:43;;;;;;;7.95;2.83;;;18.10;99.90;;;;;;4995886;28;20128;-73
2022/11/08 08:01:09;;;;;;;8.43;2.78;;;18.10;99.90;;;;;;4991421;28;20038;-74
2022/11/08 08:03:36;;;;;;;5.45;2.28;;;18.20;99.90;;;;;;4994651;28;20042;-74
2022/11/08 08:06:02;;;;;;;7.05;2.72;;;18.20;99.90;;;;;;4989088;28;20075;-74
2022/11/08 08:08:29;;;;;;;8.90;2.85;;;18.60;99.90;;;;;;4988107;28;20042;-73
2022/11/08 08:11:02;;;;;;;7.75;2.60;;;19.10;99.90;;;;;;4990551;28;20547;-74
2022/11/08 08:13:28;;;;;;;9.73;3.42;;;19.40;99.90;;;;;;4997473;28;20569;-73
2022/11/08 08:16:00;;;;;;;;;;;19.50;99.90;;;;;;4991361;28;20049;-73
2022/11/08 08:18:27;;;;;;;9.32;2.80;;;19.90;99.90;;;;;;4983140;28;19921;-74
2022/11/08 08:20:54;;;;;;;7.35;2.75;;;20.00;99.90;;;;;;5017338;28;20093;-73
2022/11/08 08:23:20;;;;;;;7.78;3.00;;;19.80;99.90;;;;;;4996277;28;20044;-74
2022/11/08 08:25:46;;;;;;;6.75;2.80;;;19.60;99.90;;;;;;4992267;28;20041;-73
2022/11/08 08:28:12;;;;;;;10.00;2.85;;;19.50;99.90;;;;;;5026814;28;20054;-73
2022/11/08 08:30:39;;;;;;;7.85;3.72;;;19.50;99.90;;;;;;5013479;28;20803;-73
2022/11/08 08:33:14;;;;;;;6.25;2.97;;;19.70;99.90;;;;;;5003699;28;20114;-74
2022/11/08 08:35:42;;;;;;;6.80;3.10;;;19.80;99.90;;;;;;4996829;28;20374;-73
2022/11/08 08:38:09;;;;;;;7.10;2.17;;;19.70;99.90;;;;;;4992034;28;20045;-73
2022/11/08 08:40:35;;;;;;;7.88;2.50;;;19.50;99.90;;;;;;5025647;28;20038;-73
2022/11/08 08:43:03;;;;;;;9.15;2.95;;;19.30;99.90;;;;;;4997442;28;20072;-73
2022/11/08 08:45:30;;;;;;;9.55;3.05;;;19.00;99.90;;;;;;4993425;28;20535;-73
2022/11/08 08:47:57;;;;;;;12.63;2.92;;;19.00;99.90;;;;;;4998787;28;20052;-73
2022/11/08 08:50:24;;;;;;;;;;;19.00;99.90;;;;;;4998524;28;20045;-73
2022/11/08 08:52:50;;;;;;;7.47;2.50;;;19.00;99.90;;;;;;4997376;28;19913;-73
2022/11/08 08:55:16;;;;;;;10.07;2.83;;;19.00;99.90;;;;;;5025852;28;20042;-73
2022/11/08 08:57:46;;;;;;;9.80;2.95;;;18.90;99.90;;;;;;5030466;28;20031;-74
2022/11/08 09:00:14;;;;;;;24.20;3.65;;;18.80;99.90;;;;;;5024459;28;20034;-73
2022/11/08 09:02:40;;;;;;;10.25;3.08;;;18.70;99.90;;;;;;4997474;28;20033;-74
2022/11/08 09:05:07;;;;;;;12.68;4.13;;;18.60;99.90;;;;;;5028562;28;20034;-73
2022/11/08 09:07:33;;;;;;;8.68;2.38;;;18.70;99.90;;;;;;4998310;28;20086;-73
2022/11/08 09:09:59;;;;;;;10.23;2.95;;;18.70;99.90;;;;;;5028791;28;20034;-73
2022/11/08 09:12:26;;;;;;;7.68;2.70;;;18.70;99.90;;;;;;5001590;28;20136;-73
2022/11/08 09:14:53;;;;;;;9.43;3.30;;;18.90;99.90;;;;;;4997231;28;20434;-75
2022/11/08 09:17:19;;;;;;;7.70;3.03;;;18.90;99.90;;;;;;4995859;28;20066;-73
2022/11/08 09:19:46;;;;;;;8.30;3.80;;;18.90;99.90;;;;;;5025784;28;20448;-73
2022/11/08 09:22:12;;;;;;;10.27;2.92;;;18.90;99.90;;;;;;5008907;28;20041;-74
2022/11/08 09:24:37;;;;;;;7.10;3.33;;;18.90;99.90;;;;;;4996988;28;20034;-73
2022/11/08 09:27:04;;;;;;;10.40;2.92;;;18.80;99.90;;;;;;4996439;28;20042;-73
2022/11/08 09:29:30;;;;;;;7.05;3.78;;;18.80;99.90;;;;;;4995839;28;20441;-73
2022/11/08 09:31:56;;;;;;;9.98;3.22;;;18.80;99.90;;;;;;4996905;28;20884;-74
2022/11/08 09:34:22;;;;;;;18.35;3.63;;;18.90;99.90;;;;;;4994743;28;20041;-74
2022/11/08 09:36:48;;;;;;;10.95;3.40;;;19.10;99.90;;;;;;4999295;28;20358;-73
2022/11/08 09:39:15;;;;;;;9.55;3.38;;;19.00;99.90;;;;;;5026369;28;20083;-73
2022/11/08 09:41:59;;;;;;;;;;;19.10;99.90;;;;;;4995134;28;20049;-73
2022/11/08 09:44:45;;;;;;;10.85;4.32;;;19.20;99.90;;;;;;5020558;28;19917;-73
2022/11/08 09:47:22;;;;;;;8.85;3.03;;;19.40;99.90;;;;;;5016810;28;20108;-73
2022/11/08 09:50:22;;;;;;;5.05;2.67;;;19.30;99.90;;;;;;5013987;28;20048;-72
2022/11/08 09:53:17;;;;;;;10.13;3.22;;;19.30;99.90;;;;;;4990426;28;20486;-73
2022/11/08 09:55:50;;;;;;;10.10;2.70;;;19.30;99.90;;;;;;5015051;28;20037;-73
2022/11/08 09:58:21;;;;;;;8.80;3.38;;;19.50;99.90;;;;;;5018249;28;20087;-73
2022/11/08 10:00:52;;;;;;;12.75;4.25;;;19.50;99.90;;;;;;5015082;28;20410;-74
2022/11/08 10:03:20;;;;;;;10.85;3.30;;;19.80;99.90;;;;;;5003494;28;20034;-73
2022/11/08 10:06:08;;;;;;;9.20;3.05;;;19.90;99.90;;;;;;5017367;28;20037;-73
2022/11/08 10:09:00;;;;;;;7.82;3.28;;;19.90;99.90;;;;;;5010380;28;20419;-74
2022/11/08 10:11:44;;;;;;;9.48;3.03;;;19.70;99.90;;;;;;4996901;28;20065;-74
2022/11/08 10:14:40;;;;;;;8.88;2.85;;;19.70;99.90;;;;;;4997174;28;20037;-73
2022/11/08 10:17:33;;;;;;;9.52;2.70;;;19.90;99.90;;;;;;5030822;28;20133;-73
2022/11/08 10:20:02;;;;;;;13.32;2.78;;;20.10;99.90;;;;;;4998168;28;20034;-74
2022/11/08 10:22:41;;;;;;;10.27;3.55;;;20.10;99.90;;;;;;5003531;28;20383;-74
2022/11/08 10:25:32;;;;;;;12.10;3.42;;;20.30;99.90;;;;;;5023096;28;20366;-73
2022/11/08 10:28:01;;;;;;;13.85;3.22;;;20.40;99.90;;;;;;4995696;28;20937;-73
2022/11/08 10:30:33;;;;;;;14.52;3.33;;;20.50;99.90;;;;;;5023159;28;20035;-73
2022/11/08 10:32:59;;;;;;;;;;;20.60;99.90;;;;;;4993043;28;20577;-73
2022/11/08 10:35:39;;;;;;;13.95;3.38;;;20.80;99.90;;;;;;5078997;23;19938;-77
2022/11/08 10:38:19;;;;;;;15.73;3.90;;;21.00;99.90;;;;;;4966989;28;20077;-77
2022/11/08 10:40:56;;;;;;;12.88;4.50;;;21.00;99.90;;;;;;4978276;28;20093;-76
2022/11/08 10:43:34;;;;;;;8.82;3.63;;;21.10;99.90;;;;;;4994545;28;20048;-77
2022/11/08 10:46:00;;;;;;;9.70;3.40;;;21.20;99.90;;;;;;4983523;28;20092;-77
2022/11/08 10:48:25;;;;;;;8.23;3.38;;;20.90;99.90;;;;;;4979426;28;20038;-78
2022/11/08 10:50:52;;;;;;;17.17;4.03;;;20.80;99.90;;;;;;4983575;28;20552;-76
2022/11/08 10:53:31;;;;;;;10.77;3.97;;;20.70;99.90;;;;;;4995566;28;20073;-76
2022/11/08 10:56:04;;;;;;;11.30;3.22;;;20.80;99.90;;;;;;4969298;28;20042;-76
2022/11/08 10:58:41;;;;;;;10.27;3.70;;;21.10;99.90;;;;;;4978186;28;20770;-77
2022/11/08 11:01:19;;;;;;;8.77;3.78;;;20.90;99.90;;;;;;4977260;28;20125;-76
2022/11/08 11:03:46;;;;;;;11.27;4.18;;;21.10;99.90;;;;;;4981843;28;20030;-78
2022/11/08 11:06:28;;;;;;;10.60;4.10;;;21.60;99.90;;;;;;4973784;28;20039;-77
2022/11/08 11:08:57;;;;;;;10.60;4.28;;;21.50;99.90;;;;;;4976816;28;20394;-76
2022/11/08 11:11:34;;;;;;;11.35;5.00;;;21.70;99.90;;;;;;4982184;28;21328;-77
2022/11/08 11:14:13;;;;;;;11.02;4.68;;;22.40;99.90;;;;;;4983362;28;20091;-78
2022/11/08 11:16:56;;;;;;;11.77;4.80;;;22.70;99.90;;;;;;5000044;28;20842;-78
2022/11/08 11:19:24;;;;;;;10.13;4.30;;;23.00;99.90;;;;;;4979756;28;20817;-77
2022/11/08 11:21:56;;;;;;;14.55;4.65;;;23.10;99.90;;;;;;4988048;28;20133;-77
2022/11/08 11:24:23;;;;;;;;;;;22.80;99.90;;;;;;4980107;28;21070;-77
2022/11/08 11:27:18;;;;;;;7.00;4.43;;;22.20;99.90;;;;;;4979032;28;19917;-77
2022/11/08 11:29:44;;;;;;;11.77;5.07;;;22.10;99.90;;;;;;4981004;28;20229;-78
2022/11/08 11:32:24;;;;;;;14.50;5.00;;;22.40;99.90;;;;;;4979106;28;20109;-77
2022/11/08 11:34:52;;;;;;;8.55;4.30;;;22.70;99.90;;;;;;4980631;28;20038;-77
2022/11/08 11:37:32;;;;;;;9.93;4.88;;;22.10;99.90;;;;;;4980635;28;20050;-78
2022/11/08 11:40:20;;;;;;;13.25;4.78;;;21.70;99.90;;;;;;4983080;28;20493;-77
2022/11/08 11:42:49;;;;;;;10.77;3.72;;;21.80;99.90;;;;;;4971036;28;20034;-77
2022/11/08 11:45:28;;;;;;;9.68;4.30;;;21.30;99.90;;;;;;4981256;28;20034;-77
2022/11/08 11:48:01;;;;;;;7.63;3.03;;;21.10;99.90;;;;;;4973051;28;20040;-77
2022/11/08 11:50:37;;;;;;;7.30;3.03;;;21.00;99.90;;;;;;4976786;28;20049;-77
2022/11/08 11:53:17;;;;;;;9.85;2.80;;;21.10;99.90;;;;;;4980055;28;20821;-74
2022/11/08 11:56:04;;;;;;;8.98;2.53;;;20.90;99.90;;;;;;4979653;28;20475;-76
2022/11/08 11:58:58;;;;;;;9.40;2.70;;;20.90;99.90;;;;;;4974464;28;20065;-76
2022/11/08 12:02:02;;;;;;;9.45;2.95;;;21.10;99.90;;;;;;4992396;28;20030;-78
2022/11/08 12:04:50;;;;;;;11.20;2.80;;;21.70;99.90;;;;;;4982529;28;20470;-76
2022/11/08 12:07:26;;;;;;;6.13;2.30;;;21.80;99.90;;;;;;4977879;28;20076;-78
2022/11/08 12:09:58;;;;;;;4.95;2.45;;;23.00;99.90;;;;;;4981340;28;20034;-79
2022/11/08 12:12:36;;;;;;;6.63;2.05;;;22.70;99.90;;;;;;4968886;28;20048;-77
2022/11/08 12:15:23;;;;;;;6.80;2.78;;;22.70;99.90;;;;;;4986362;28;20647;-77
2022/11/08 12:17:59;;;;;;;6.28;2.15;;;23.00;99.90;;;;;;4982768;28;20711;-77
2022/11/08 12:20:35;;;;;;;9.75;2.92;;;23.70;99.90;;;;;;4998800;28;20560;-77
2022/11/08 12:23:23;;;;;;;7.82;2.45;;;24.70;99.90;;;;;;4997416;28;20030;-77
2022/11/08 12:26:03;;;;;;;8.35;2.90;;;24.60;99.90;;;;;;4981752;28;20121;-77
2022/11/08 12:28:29;;;;;;;11.90;2.72;;;24.30;99.90;;;;;;4986574;28;20038;-77
2022/11/08 12:31:14;;;;;;;8.65;3.83;;;24.20;99.90;;;;;;4984536;28;20676;-77
2022/11/08 12:34:01;;;;;;;9.48;2.42;;;25.40;99.90;;;;;;4982687;28;20101;-77
2022/11/08 12:37:02;;;;;;;5.38;2.00;;;24.40;99.90;;;;;;4982174;28;20080;-76
2022/11/08 12:39:44;;;;;;;7.88;2.65;;;24.30;99.90;;;;;;4978342;28;20409;-76
2022/11/08 12:42:37;;;;;;;6.03;2.42;;;25.60;99.90;;;;;;4981595;28;20042;-77
2022/11/08 12:45:36;;;;;;;6.40;2.63;;;24.90;99.90;;;;;;4996982;28;20045;-78
2022/11/08 12:48:22;;;;;;;8.20;2.38;;;25.00;99.90;;;;;;4999748;28;20066;-78
2022/11/08 12:50:59;;;;;;;9.93;2.70;;;24.10;99.90;;;;;;5000320;28;20048;-77
2022/11/08 12:53:47;;;;;;;8.57;2.55;;;24.90;99.90;;;;;;4977364;28;20043;-77
2022/11/08 12:56:24;;;;;;;5.60;2.17;;;25.30;99.90;;;;;;4977471;28;20412;-77
2022/11/08 12:58:52;;;;;;;7.72;2.92;;;25.80;99.90;;;;;;4983197;28;20042;-77
2022/11/08 13:01:20;;;;;;;9.07;2.50;;;26.10;99.90;;;;;;4980233;28;20034;-78
2022/11/08 13:03:59;;;;;;;10.07;2.70;;;26.10;99.90;;;;;;4983358;28;20138;-78
2022/11/08 13:06:56;;;;;;;5.50;2.53;;;25.90;99.90;;;;;;4982504;28;20031;-77
2022/11/08 13:09:32;;;;;;;7.10;2.60;;;25.80;99.90;;;;;;4982299;28;21615;-77
2022/11/08 13:12:18;;;;;;;6.00;2.67;;;25.80;99.90;;;;;;4983104;28;20073;-78
2022/11/08 13:14:43;;;;;;;;;;;25.90;99.90;;;;;;4983864;28;20042;-77
2022/11/08 13:17:21;;;;;;;6.85;2.83;;;26.50;99.90;;;;;;4984088;28;19926;-77
2022/11/08 13:19:49;;;;;;;8.65;2.88;;;26.60;99.90;;;;;;4991048;28;20184;-77
2022/11/08 13:22:32;;;;;;;9.85;3.92;;;26.70;99.90;;;;;;4999714;28;20077;-76
2022/11/08 13:25:01;;;;;;;6.60;2.72;;;26.40;99.90;;;;;;4996886;28;20156;-76
2022/11/08 13:27:40;;;;;;;8.27;3.55;;;24.70;99.90;;;;;;4973413;28;20173;-77